sensor_id;sensor_type;location;lat;lon;timestamp;P1;durP1;ratioP1;P2;durP2;ratioP2
14704;SDS011;7442;50.840;3.396;2024-02-23T00:01:01;1.62;;;0.88;;
14704;SDS011;7442;50.840;3.396;2024-02-23T00:03:31;1.02;;;0.60;;
14704;SDS011;7442;50.840;3.396;2024-02-23T00:06:03;1.55;;;0.50;;
14704;SDS011;7442;50.840;3.396;2024-02-23T00:08:33;1.15;;;0.53;;
14704;SDS011;7442;50.840;3.396;2024-02-23T00:11:03;1.07;;;0.40;;
14704;SDS011;7442;50.840;3.396;2024-02-23T00:13:34;0.72;;;0.50;;
14704;SDS011;7442;50.840;3.396;2024-02-23T00:16:04;1.15;;;0.70;;
14704;SDS011;7442;50.840;3.396;2024-02-23T00:18:34;0.70;;;0.40;;
14704;SDS011;7442;50.840;3.396;2024-02-23T00:21:04;1.22;;;0.53;;
14704;SDS011;7442;50.840;3.396;2024-02-23T00:23:34;1.50;;;0.65;;
14704;SDS011;7442;50.840;3.396;2024-02-23T00:26:04;1.12;;;0.60;;
14704;SDS011;7442;50.840;3.396;2024-02-23T00:28:34;1.10;;;0.45;;
14704;SDS011;7442;50.840;3.396;2024-02-23T00:31:04;1.05;;;0.82;;
14704;SDS011;7442;50.840;3.396;2024-02-23T00:33:34;1.00;;;0.37;;
14704;SDS011;7442;50.840;3.396;2024-02-23T00:36:05;0.80;;;0.42;;
14704;SDS011;7442;50.840;3.396;2024-02-23T00:38:35;1.15;;;0.72;;
14704;SDS011;7442;50.840;3.396;2024-02-23T00:41:06;0.80;;;0.60;;
14704;SDS011;7442;50.840;3.396;2024-02-23T00:43:39;1.05;;;0.60;;
14704;SDS011;7442;50.840;3.396;2024-02-23T00:46:09;1.22;;;0.50;;
14704;SDS011;7442;50.840;3.396;2024-02-23T00:48:40;1.92;;;0.60;;
14704;SDS011;7442;50.840;3.396;2024-02-23T00:51:10;1.32;;;0.60;;
14704;SDS011;7442;50.840;3.396;2024-02-23T00:53:40;0.78;;;0.60;;
14704;SDS011;7442;50.840;3.396;2024-02-23T00:56:10;1.72;;;0.80;;
14704;SDS011;7442;50.840;3.396;2024-02-23T00:58:41;1.10;;;0.57;;
14704;SDS011;7442;50.840;3.396;2024-02-23T01:01:11;1.42;;;0.60;;
14704;SDS011;7442;50.840;3.396;2024-02-23T01:03:42;1.00;;;0.47;;
14704;SDS011;7442;50.840;3.396;2024-02-23T01:06:12;1.40;;;0.68;;
14704;SDS011;7442;50.840;3.396;2024-02-23T01:08:43;0.85;;;0.60;;
14704;SDS011;7442;50.840;3.396;2024-02-23T01:11:13;0.50;;;0.42;;
14704;SDS011;7442;50.840;3.396;2024-02-23T01:13:43;1.52;;;0.60;;
14704;SDS011;7442;50.840;3.396;2024-02-23T01:16:13;0.95;;;0.50;;
14704;SDS011;7442;50.840;3.396;2024-02-23T01:18:43;0.40;;;0.30;;
14704;SDS011;7442;50.840;3.396;2024-02-23T01:21:13;0.45;;;0.35;;
14704;SDS011;7442;50.840;3.396;2024-02-23T01:23:43;1.90;;;0.60;;
14704;SDS011;7442;50.840;3.396;2024-02-23T01:26:13;1.25;;;0.55;;
14704;SDS011;7442;50.840;3.396;2024-02-23T01:28:43;0.65;;;0.42;;
14704;SDS011;7442;50.840;3.396;2024-02-23T01:31:13;1.15;;;0.60;;
14704;SDS011;7442;50.840;3.396;2024-02-23T01:33:44;0.95;;;0.40;;
14704;SDS011;7442;50.840;3.396;2024-02-23T01:36:14;1.50;;;0.50;;
14704;SDS011;7442;50.840;3.396;2024-02-23T01:38:44;1.20;;;0.40;;
14704;SDS011;7442;50.840;3.396;2024-02-23T01:41:14;0.60;;;0.50;;
14704;SDS011;7442;50.840;3.396;2024-02-23T01:43:44;1.10;;;0.57;;
14704;SDS011;7442;50.840;3.396;2024-02-23T01:46:14;1.47;;;0.42;;
14704;SDS011;7442;50.840;3.396;2024-02-23T01:48:46;1.30;;;0.50;;
14704;SDS011;7442;50.840;3.396;2024-02-23T01:51:16;1.80;;;0.55;;
14704;SDS011;7442;50.840;3.396;2024-02-23T01:53:46;0.80;;;0.62;;
14704;SDS011;7442;50.840;3.396;2024-02-23T01:56:16;1.02;;;0.70;;
14704;SDS011;7442;50.840;3.396;2024-02-23T01:58:48;1.15;;;0.60;;
14704;SDS011;7442;50.840;3.396;2024-02-23T02:03:43;0.40;;;0.40;;
14704;SDS011;7442;50.840;3.396;2024-02-23T02:06:13;2.62;;;0.50;;
14704;SDS011;7442;50.840;3.396;2024-02-23T02:08:43;1.80;;;0.80;;
14704;SDS011;7442;50.840;3.396;2024-02-23T02:11:14;1.77;;;0.93;;
14704;SDS011;7442;50.840;3.396;2024-02-23T02:13:44;0.85;;;0.40;;
14704;SDS011;7442;50.840;3.396;2024-02-23T02:16:14;0.85;;;0.50;;
14704;SDS011;7442;50.840;3.396;2024-02-23T02:18:44;0.72;;;0.40;;
14704;SDS011;7442;50.840;3.396;2024-02-23T02:21:14;0.68;;;0.50;;
14704;SDS011;7442;50.840;3.396;2024-02-23T02:23:44;0.53;;;0.40;;
14704;SDS011;7442;50.840;3.396;2024-02-23T02:26:14;1.67;;;0.60;;
14704;SDS011;7442;50.840;3.396;2024-02-23T02:28:44;0.85;;;0.40;;
14704;SDS011;7442;50.840;3.396;2024-02-23T02:31:15;0.75;;;0.50;;
14704;SDS011;7442;50.840;3.396;2024-02-23T02:33:45;0.60;;;0.50;;
14704;SDS011;7442;50.840;3.396;2024-02-23T02:36:16;0.78;;;0.50;;
14704;SDS011;7442;50.840;3.396;2024-02-23T02:38:46;1.12;;;0.60;;
14704;SDS011;7442;50.840;3.396;2024-02-23T02:41:17;1.35;;;0.60;;
14704;SDS011;7442;50.840;3.396;2024-02-23T02:43:48;0.65;;;0.40;;
14704;SDS011;7442;50.840;3.396;2024-02-23T02:46:18;1.00;;;0.60;;
14704;SDS011;7442;50.840;3.396;2024-02-23T02:48:48;1.25;;;0.60;;
14704;SDS011;7442;50.840;3.396;2024-02-23T02:51:18;1.45;;;0.50;;
14704;SDS011;7442;50.840;3.396;2024-02-23T02:53:48;1.12;;;0.50;;
14704;SDS011;7442;50.840;3.396;2024-02-23T02:56:18;2.30;;;0.88;;
14704;SDS011;7442;50.840;3.396;2024-02-23T02:58:48;0.85;;;0.50;;
14704;SDS011;7442;50.840;3.396;2024-02-23T03:01:18;1.37;;;0.57;;
14704;SDS011;7442;50.840;3.396;2024-02-23T03:03:48;1.05;;;0.60;;
14704;SDS011;7442;50.840;3.396;2024-02-23T03:06:18;2.05;;;0.60;;
14704;SDS011;7442;50.840;3.396;2024-02-23T03:08:48;1.05;;;0.55;;
14704;SDS011;7442;50.840;3.396;2024-02-23T03:11:18;1.32;;;0.60;;
14704;SDS011;7442;50.840;3.396;2024-02-23T03:13:48;0.57;;;0.37;;
14704;SDS011;7442;50.840;3.396;2024-02-23T03:16:19;2.00;;;0.50;;
14704;SDS011;7442;50.840;3.396;2024-02-23T03:18:51;1.50;;;0.70;;
14704;SDS011;7442;50.840;3.396;2024-02-23T03:21:22;0.90;;;0.53;;
14704;SDS011;7442;50.840;3.396;2024-02-23T03:23:52;1.07;;;0.65;;
14704;SDS011;7442;50.840;3.396;2024-02-23T03:26:22;2.20;;;0.60;;
14704;SDS011;7442;50.840;3.396;2024-02-23T03:28:54;1.35;;;0.70;;
14704;SDS011;7442;50.840;3.396;2024-02-23T03:31:24;1.00;;;0.50;;
14704;SDS011;7442;50.840;3.396;2024-02-23T03:33:54;1.30;;;0.53;;
14704;SDS011;7442;50.840;3.396;2024-02-23T03:36:24;0.82;;;0.50;;
14704;SDS011;7442;50.840;3.396;2024-02-23T03:38:56;0.80;;;0.57;;
14704;SDS011;7442;50.840;3.396;2024-02-23T03:43:54;1.72;;;0.98;;
14704;SDS011;7442;50.840;3.396;2024-02-23T03:46:24;1.45;;;0.80;;
14704;SDS011;7442;50.840;3.396;2024-02-23T03:48:54;1.52;;;0.60;;
14704;SDS011;7442;50.840;3.396;2024-02-23T03:51:25;1.10;;;0.50;;
14704;SDS011;7442;50.840;3.396;2024-02-23T03:53:55;0.93;;;0.70;;
14704;SDS011;7442;50.840;3.396;2024-02-23T03:56:25;1.45;;;0.80;;
14704;SDS011;7442;50.840;3.396;2024-02-23T03:58:55;1.77;;;1.00;;
14704;SDS011;7442;50.840;3.396;2024-02-23T04:01:26;0.60;;;0.50;;
14704;SDS011;7442;50.840;3.396;2024-02-23T04:03:55;1.65;;;0.80;;
14704;SDS011;7442;50.840;3.396;2024-02-23T04:06:26;0.90;;;0.50;;
14704;SDS011;7442;50.840;3.396;2024-02-23T04:08:56;1.50;;;0.82;;
14704;SDS011;7442;50.840;3.396;2024-02-23T04:11:26;1.60;;;0.70;;
14704;SDS011;7442;50.840;3.396;2024-02-23T04:13:56;1.22;;;0.70;;
14704;SDS011;7442;50.840;3.396;2024-02-23T04:16:26;1.40;;;0.80;;
14704;SDS011;7442;50.840;3.396;2024-02-23T04:18:56;1.90;;;0.80;;
14704;SDS011;7442;50.840;3.396;2024-02-23T04:21:27;2.50;;;1.05;;
14704;SDS011;7442;50.840;3.396;2024-02-23T04:23:58;1.15;;;0.68;;
14704;SDS011;7442;50.840;3.396;2024-02-23T04:26:28;2.27;;;0.90;;
14704;SDS011;7442;50.840;3.396;2024-02-23T04:28:58;1.65;;;0.70;;
14704;SDS011;7442;50.840;3.396;2024-02-23T04:31:28;2.05;;;0.88;;
14704;SDS011;7442;50.840;3.396;2024-02-23T04:33:58;1.17;;;0.60;;
14704;SDS011;7442;50.840;3.396;2024-02-23T04:36:28;1.67;;;0.70;;
14704;SDS011;7442;50.840;3.396;2024-02-23T04:38:58;1.90;;;0.80;;
14704;SDS011;7442;50.840;3.396;2024-02-23T04:41:28;0.88;;;0.40;;
14704;SDS011;7442;50.840;3.396;2024-02-23T04:43:58;0.80;;;0.60;;
14704;SDS011;7442;50.840;3.396;2024-02-23T04:46:30;1.10;;;0.60;;
14704;SDS011;7442;50.840;3.396;2024-02-23T04:49:02;1.00;;;0.60;;
14704;SDS011;7442;50.840;3.396;2024-02-23T04:51:32;1.02;;;0.68;;
14704;SDS011;7442;50.840;3.396;2024-02-23T04:54:02;1.50;;;0.70;;
14704;SDS011;7442;50.840;3.396;2024-02-23T04:56:32;1.37;;;0.85;;
14704;SDS011;7442;50.840;3.396;2024-02-23T04:59:02;1.07;;;0.60;;
14704;SDS011;7442;50.840;3.396;2024-02-23T05:01:36;1.17;;;0.80;;
14704;SDS011;7442;50.840;3.396;2024-02-23T05:04:06;1.22;;;0.72;;
14704;SDS011;7442;50.840;3.396;2024-02-23T05:06:37;1.17;;;0.68;;
14704;SDS011;7442;50.840;3.396;2024-02-23T05:09:08;0.80;;;0.60;;
14704;SDS011;7442;50.840;3.396;2024-02-23T05:11:39;2.45;;;0.78;;
14704;SDS011;7442;50.840;3.396;2024-02-23T05:14:09;1.45;;;0.65;;
14704;SDS011;7442;50.840;3.396;2024-02-23T05:16:40;2.77;;;0.80;;
14704;SDS011;7442;50.840;3.396;2024-02-23T05:19:10;1.35;;;0.88;;
14704;SDS011;7442;50.840;3.396;2024-02-23T05:21:40;2.33;;;0.90;;
14704;SDS011;7442;50.840;3.396;2024-02-23T05:24:11;2.20;;;0.57;;
14704;SDS011;7442;50.840;3.396;2024-02-23T05:26:41;2.92;;;0.57;;
14704;SDS011;7442;50.840;3.396;2024-02-23T05:29:12;2.80;;;0.82;;
14704;SDS011;7442;50.840;3.396;2024-02-23T05:31:45;1.17;;;0.70;;
14704;SDS011;7442;50.840;3.396;2024-02-23T05:34:18;1.47;;;0.90;;
14704;SDS011;7442;50.840;3.396;2024-02-23T05:36:49;1.72;;;0.80;;
14704;SDS011;7442;50.840;3.396;2024-02-23T05:39:19;1.27;;;0.70;;
14704;SDS011;7442;50.840;3.396;2024-02-23T05:41:50;1.80;;;0.80;;
14704;SDS011;7442;50.840;3.396;2024-02-23T05:44:20;2.08;;;0.95;;
14704;SDS011;7442;50.840;3.396;2024-02-23T05:46:50;2.42;;;0.95;;
14704;SDS011;7442;50.840;3.396;2024-02-23T05:49:20;1.02;;;0.60;;
14704;SDS011;7442;50.840;3.396;2024-02-23T05:51:50;1.42;;;0.65;;
14704;SDS011;7442;50.840;3.396;2024-02-23T05:54:20;1.75;;;0.62;;
14704;SDS011;7442;50.840;3.396;2024-02-23T05:56:50;1.67;;;0.62;;
14704;SDS011;7442;50.840;3.396;2024-02-23T05:59:20;1.82;;;0.80;;
14704;SDS011;7442;50.840;3.396;2024-02-23T06:01:50;2.10;;;1.00;;
14704;SDS011;7442;50.840;3.396;2024-02-23T06:04:23;0.88;;;0.60;;
14704;SDS011;7442;50.840;3.396;2024-02-23T06:06:53;0.95;;;0.68;;
14704;SDS011;7442;50.840;3.396;2024-02-23T06:09:23;1.30;;;0.75;;
14704;SDS011;7442;50.840;3.396;2024-02-23T06:11:53;1.57;;;0.85;;
14704;SDS011;7442;50.840;3.396;2024-02-23T06:14:28;0.95;;;0.60;;
14704;SDS011;7442;50.840;3.396;2024-02-23T06:16:54;1.70;;;0.80;;
14704;SDS011;7442;50.840;3.396;2024-02-23T06:19:24;2.35;;;0.70;;
14704;SDS011;7442;50.840;3.396;2024-02-23T06:21:54;2.02;;;0.85;;
14704;SDS011;7442;50.840;3.396;2024-02-23T06:24:25;2.12;;;0.80;;
14704;SDS011;7442;50.840;3.396;2024-02-23T06:26:55;2.47;;;0.90;;
14704;SDS011;7442;50.840;3.396;2024-02-23T06:29:26;2.77;;;0.90;;
14704;SDS011;7442;50.840;3.396;2024-02-23T06:31:56;1.30;;;0.62;;
14704;SDS011;7442;50.840;3.396;2024-02-23T06:34:26;1.87;;;0.90;;
14704;SDS011;7442;50.840;3.396;2024-02-23T06:36:56;2.60;;;0.98;;
14704;SDS011;7442;50.840;3.396;2024-02-23T06:39:26;1.95;;;0.95;;
14704;SDS011;7442;50.840;3.396;2024-02-23T06:41:56;1.77;;;0.90;;
14704;SDS011;7442;50.840;3.396;2024-02-23T06:44:28;3.02;;;1.25;;
14704;SDS011;7442;50.840;3.396;2024-02-23T06:46:58;2.25;;;0.80;;
14704;SDS011;7442;50.840;3.396;2024-02-23T06:49:28;3.55;;;0.95;;
14704;SDS011;7442;50.840;3.396;2024-02-23T06:51:58;2.20;;;1.00;;
14704;SDS011;7442;50.840;3.396;2024-02-23T06:54:28;1.20;;;0.62;;
14704;SDS011;7442;50.840;3.396;2024-02-23T06:56:58;1.87;;;1.00;;
14704;SDS011;7442;50.840;3.396;2024-02-23T06:59:28;1.87;;;0.80;;
14704;SDS011;7442;50.840;3.396;2024-02-23T07:01:58;4.10;;;0.82;;
14704;SDS011;7442;50.840;3.396;2024-02-23T07:04:28;1.77;;;0.82;;
14704;SDS011;7442;50.840;3.396;2024-02-23T07:06:58;2.05;;;0.80;;
14704;SDS011;7442;50.840;3.396;2024-02-23T07:09:30;3.87;;;1.27;;
14704;SDS011;7442;50.840;3.396;2024-02-23T07:12:00;3.65;;;0.90;;
14704;SDS011;7442;50.840;3.396;2024-02-23T07:14:30;4.33;;;0.82;;
14704;SDS011;7442;50.840;3.396;2024-02-23T07:17:00;1.75;;;0.90;;
14704;SDS011;7442;50.840;3.396;2024-02-23T07:19:30;2.65;;;1.07;;
14704;SDS011;7442;50.840;3.396;2024-02-23T07:22:00;1.70;;;1.00;;
14704;SDS011;7442;50.840;3.396;2024-02-23T07:24:30;2.17;;;0.80;;
14704;SDS011;7442;50.840;3.396;2024-02-23T07:27:01;1.72;;;0.90;;
14704;SDS011;7442;50.840;3.396;2024-02-23T07:29:31;1.35;;;0.90;;
14704;SDS011;7442;50.840;3.396;2024-02-23T07:32:03;5.83;;;1.10;;
14704;SDS011;7442;50.840;3.396;2024-02-23T07:34:34;4.22;;;1.12;;
14704;SDS011;7442;50.840;3.396;2024-02-23T07:37:04;2.55;;;1.00;;
14704;SDS011;7442;50.840;3.396;2024-02-23T07:39:34;2.70;;;1.27;;
14704;SDS011;7442;50.840;3.396;2024-02-23T07:42:04;3.85;;;1.37;;
14704;SDS011;7442;50.840;3.396;2024-02-23T07:44:36;5.12;;;1.22;;
14704;SDS011;7442;50.840;3.396;2024-02-23T07:47:06;1.85;;;1.00;;
14704;SDS011;7442;50.840;3.396;2024-02-23T07:49:36;2.22;;;1.02;;
14704;SDS011;7442;50.840;3.396;2024-02-23T07:52:08;2.22;;;0.90;;
14704;SDS011;7442;50.840;3.396;2024-02-23T07:54:38;3.37;;;1.17;;
14704;SDS011;7442;50.840;3.396;2024-02-23T07:57:08;1.87;;;1.00;;
14704;SDS011;7442;50.840;3.396;2024-02-23T07:59:38;2.08;;;0.88;;
14704;SDS011;7442;50.840;3.396;2024-02-23T08:02:09;2.65;;;1.00;;
14704;SDS011;7442;50.840;3.396;2024-02-23T08:04:38;2.33;;;1.00;;
14704;SDS011;7442;50.840;3.396;2024-02-23T08:07:09;2.15;;;1.07;;
14704;SDS011;7442;50.840;3.396;2024-02-23T08:09:39;3.65;;;1.10;;
14704;SDS011;7442;50.840;3.396;2024-02-23T08:12:09;3.37;;;1.47;;
14704;SDS011;7442;50.840;3.396;2024-02-23T08:14:41;2.37;;;0.98;;
14704;SDS011;7442;50.840;3.396;2024-02-23T08:17:12;3.12;;;0.95;;
14704;SDS011;7442;50.840;3.396;2024-02-23T08:19:42;4.53;;;1.30;;
14704;SDS011;7442;50.840;3.396;2024-02-23T08:22:12;4.03;;;1.00;;
14704;SDS011;7442;50.840;3.396;2024-02-23T08:24:42;2.62;;;1.10;;
14704;SDS011;7442;50.840;3.396;2024-02-23T08:27:12;3.95;;;1.30;;
14704;SDS011;7442;50.840;3.396;2024-02-23T08:29:42;2.15;;;1.10;;
14704;SDS011;7442;50.840;3.396;2024-02-23T08:32:12;3.50;;;1.02;;
14704;SDS011;7442;50.840;3.396;2024-02-23T08:34:42;3.05;;;1.20;;
14704;SDS011;7442;50.840;3.396;2024-02-23T08:37:12;2.17;;;0.90;;
14704;SDS011;7442;50.840;3.396;2024-02-23T08:39:42;5.33;;;1.30;;
14704;SDS011;7442;50.840;3.396;2024-02-23T08:42:12;2.27;;;1.00;;
14704;SDS011;7442;50.840;3.396;2024-02-23T08:44:42;5.05;;;1.42;;
14704;SDS011;7442;50.840;3.396;2024-02-23T08:47:12;3.70;;;1.20;;
14704;SDS011;7442;50.840;3.396;2024-02-23T08:49:42;2.67;;;1.00;;
14704;SDS011;7442;50.840;3.396;2024-02-23T08:52:13;3.67;;;1.42;;
14704;SDS011;7442;50.840;3.396;2024-02-23T08:54:42;4.28;;;1.60;;
14704;SDS011;7442;50.840;3.396;2024-02-23T08:57:13;1.57;;;1.20;;
14704;SDS011;7442;50.840;3.396;2024-02-23T08:59:44;2.55;;;1.30;;
14704;SDS011;7442;50.840;3.396;2024-02-23T09:02:15;1.57;;;0.78;;
14704;SDS011;7442;50.840;3.396;2024-02-23T09:04:46;3.17;;;1.27;;
14704;SDS011;7442;50.840;3.396;2024-02-23T09:07:17;8.15;;;1.40;;
14704;SDS011;7442;50.840;3.396;2024-02-23T09:09:50;6.87;;;1.80;;
14704;SDS011;7442;50.840;3.396;2024-02-23T09:12:20;4.37;;;1.22;;
14704;SDS011;7442;50.840;3.396;2024-02-23T09:14:50;3.35;;;1.00;;
14704;SDS011;7442;50.840;3.396;2024-02-23T09:17:20;2.45;;;0.93;;
14704;SDS011;7442;50.840;3.396;2024-02-23T09:19:50;2.15;;;1.05;;
14704;SDS011;7442;50.840;3.396;2024-02-23T09:22:20;4.83;;;1.40;;
14704;SDS011;7442;50.840;3.396;2024-02-23T09:24:51;3.22;;;0.90;;
14704;SDS011;7442;50.840;3.396;2024-02-23T09:27:21;2.67;;;1.30;;
14704;SDS011;7442;50.840;3.396;2024-02-23T09:29:55;3.62;;;1.40;;
14704;SDS011;7442;50.840;3.396;2024-02-23T09:32:26;2.55;;;1.30;;
14704;SDS011;7442;50.840;3.396;2024-02-23T09:34:56;2.75;;;1.10;;
14704;SDS011;7442;50.840;3.396;2024-02-23T09:37:27;3.08;;;0.95;;
14704;SDS011;7442;50.840;3.396;2024-02-23T09:39:57;2.65;;;1.17;;
14704;SDS011;7442;50.840;3.396;2024-02-23T09:42:28;4.03;;;1.10;;
14704;SDS011;7442;50.840;3.396;2024-02-23T09:45:00;2.95;;;1.15;;
14704;SDS011;7442;50.840;3.396;2024-02-23T09:47:30;4.28;;;1.10;;
14704;SDS011;7442;50.840;3.396;2024-02-23T09:50:02;1.45;;;1.10;;
14704;SDS011;7442;50.840;3.396;2024-02-23T09:52:33;1.70;;;0.93;;
14704;SDS011;7442;50.840;3.396;2024-02-23T09:55:03;3.05;;;1.15;;
14704;SDS011;7442;50.840;3.396;2024-02-23T09:57:34;2.33;;;1.12;;
14704;SDS011;7442;50.840;3.396;2024-02-23T10:00:04;2.20;;;1.30;;
14704;SDS011;7442;50.840;3.396;2024-02-23T10:02:36;4.40;;;1.17;;
14704;SDS011;7442;50.840;3.396;2024-02-23T10:05:06;1.98;;;0.90;;
14704;SDS011;7442;50.840;3.396;2024-02-23T10:07:37;3.83;;;1.00;;
14704;SDS011;7442;50.840;3.396;2024-02-23T10:10:07;1.67;;;1.00;;
14704;SDS011;7442;50.840;3.396;2024-02-23T10:12:39;2.12;;;0.90;;
14704;SDS011;7442;50.840;3.396;2024-02-23T10:15:09;1.85;;;1.00;;
14704;SDS011;7442;50.840;3.396;2024-02-23T10:17:39;1.82;;;1.00;;
14704;SDS011;7442;50.840;3.396;2024-02-23T10:20:09;3.80;;;1.50;;
14704;SDS011;7442;50.840;3.396;2024-02-23T10:22:40;3.50;;;0.88;;
14704;SDS011;7442;50.840;3.396;2024-02-23T10:25:10;2.02;;;1.05;;
14704;SDS011;7442;50.840;3.396;2024-02-23T10:27:40;2.70;;;1.27;;
14704;SDS011;7442;50.840;3.396;2024-02-23T10:30:11;3.17;;;1.00;;
14704;SDS011;7442;50.840;3.396;2024-02-23T10:32:50;1.67;;;1.20;;
14704;SDS011;7442;50.840;3.396;2024-02-23T10:35:26;2.08;;;1.00;;
14704;SDS011;7442;50.840;3.396;2024-02-23T10:37:56;3.87;;;1.30;;
14704;SDS011;7442;50.840;3.396;2024-02-23T10:40:26;2.65;;;1.05;;
14704;SDS011;7442;50.840;3.396;2024-02-23T10:43:03;3.10;;;1.30;;
14704;SDS011;7442;50.840;3.396;2024-02-23T10:45:38;1.07;;;0.55;;
14704;SDS011;7442;50.840;3.396;2024-02-23T10:48:10;2.60;;;1.22;;
14704;SDS011;7442;50.840;3.396;2024-02-23T10:50:43;2.87;;;1.20;;
14704;SDS011;7442;50.840;3.396;2024-02-23T10:53:13;1.67;;;1.00;;
14704;SDS011;7442;50.840;3.396;2024-02-23T10:55:44;3.47;;;1.07;;
14704;SDS011;7442;50.840;3.396;2024-02-23T10:58:15;2.20;;;1.00;;
14704;SDS011;7442;50.840;3.396;2024-02-23T11:00:45;2.62;;;1.17;;
14704;SDS011;7442;50.840;3.396;2024-02-23T11:03:18;2.42;;;1.22;;
14704;SDS011;7442;50.840;3.396;2024-02-23T11:05:48;3.10;;;0.90;;
14704;SDS011;7442;50.840;3.396;2024-02-23T11:08:18;3.22;;;0.90;;
14704;SDS011;7442;50.840;3.396;2024-02-23T11:10:49;1.87;;;0.90;;
14704;SDS011;7442;50.840;3.396;2024-02-23T11:13:34;2.77;;;1.07;;
14704;SDS011;7442;50.840;3.396;2024-02-23T11:16:07;2.92;;;0.90;;
14704;SDS011;7442;50.840;3.396;2024-02-23T11:18:42;3.35;;;1.05;;
14704;SDS011;7442;50.840;3.396;2024-02-23T11:21:11;2.83;;;1.02;;
14704;SDS011;7442;50.840;3.396;2024-02-23T11:23:42;3.05;;;1.10;;
14704;SDS011;7442;50.840;3.396;2024-02-23T11:26:13;5.03;;;1.25;;
14704;SDS011;7442;50.840;3.396;2024-02-23T11:28:50;1.77;;;1.02;;
14704;SDS011;7442;50.840;3.396;2024-02-23T11:31:22;1.72;;;1.00;;
14704;SDS011;7442;50.840;3.396;2024-02-23T11:33:54;1.50;;;0.93;;
14704;SDS011;7442;50.840;3.396;2024-02-23T11:36:32;2.80;;;1.07;;
14704;SDS011;7442;50.840;3.396;2024-02-23T11:39:04;2.22;;;1.05;;
14704;SDS011;7442;50.840;3.396;2024-02-23T11:41:34;3.20;;;0.90;;
14704;SDS011;7442;50.840;3.396;2024-02-23T11:44:06;3.67;;;1.72;;
14704;SDS011;7442;50.840;3.396;2024-02-23T11:46:36;4.62;;;1.20;;
14704;SDS011;7442;50.840;3.396;2024-02-23T11:49:06;1.92;;;1.00;;
14704;SDS011;7442;50.840;3.396;2024-02-23T11:51:36;4.25;;;1.22;;
14704;SDS011;7442;50.840;3.396;2024-02-23T11:54:06;3.55;;;1.35;;
14704;SDS011;7442;50.840;3.396;2024-02-23T11:56:37;5.92;;;1.07;;
14704;SDS011;7442;50.840;3.396;2024-02-23T11:59:07;3.72;;;1.10;;
14704;SDS011;7442;50.840;3.396;2024-02-23T12:01:38;5.12;;;0.90;;
14704;SDS011;7442;50.840;3.396;2024-02-23T12:04:08;5.78;;;1.27;;
14704;SDS011;7442;50.840;3.396;2024-02-23T12:06:38;4.87;;;1.27;;
14704;SDS011;7442;50.840;3.396;2024-02-23T12:09:09;1.95;;;1.10;;
14704;SDS011;7442;50.840;3.396;2024-02-23T12:11:40;3.25;;;1.20;;
14704;SDS011;7442;50.840;3.396;2024-02-23T12:14:11;1.42;;;1.10;;
14704;SDS011;7442;50.840;3.396;2024-02-23T12:16:41;3.92;;;1.20;;
14704;SDS011;7442;50.840;3.396;2024-02-23T12:19:11;4.08;;;1.30;;
14704;SDS011;7442;50.840;3.396;2024-02-23T12:21:41;3.25;;;1.22;;
14704;SDS011;7442;50.840;3.396;2024-02-23T12:24:15;2.05;;;0.93;;
14704;SDS011;7442;50.840;3.396;2024-02-23T12:26:52;4.33;;;1.20;;
14704;SDS011;7442;50.840;3.396;2024-02-23T12:29:20;2.12;;;1.05;;
14704;SDS011;7442;50.840;3.396;2024-02-23T12:31:50;2.27;;;1.10;;
14704;SDS011;7442;50.840;3.396;2024-02-23T12:34:20;7.08;;;1.17;;
14704;SDS011;7442;50.840;3.396;2024-02-23T12:36:54;2.55;;;1.45;;
14704;SDS011;7442;50.840;3.396;2024-02-23T12:39:25;1.30;;;0.82;;
14704;SDS011;7442;50.840;3.396;2024-02-23T12:41:55;4.97;;;1.37;;
14704;SDS011;7442;50.840;3.396;2024-02-23T12:44:25;3.25;;;1.05;;
14704;SDS011;7442;50.840;3.396;2024-02-23T12:46:55;3.98;;;1.27;;
14704;SDS011;7442;50.840;3.396;2024-02-23T12:49:25;3.20;;;1.27;;
14704;SDS011;7442;50.840;3.396;2024-02-23T12:51:59;2.35;;;1.00;;
14704;SDS011;7442;50.840;3.396;2024-02-23T12:54:29;3.25;;;1.00;;
14704;SDS011;7442;50.840;3.396;2024-02-23T12:57:01;4.33;;;1.32;;
14704;SDS011;7442;50.840;3.396;2024-02-23T12:59:31;3.75;;;1.45;;
14704;SDS011;7442;50.840;3.396;2024-02-23T13:02:01;4.22;;;1.50;;
14704;SDS011;7442;50.840;3.396;2024-02-23T13:04:32;3.05;;;1.02;;
14704;SDS011;7442;50.840;3.396;2024-02-23T13:07:02;3.58;;;1.30;;
14704;SDS011;7442;50.840;3.396;2024-02-23T13:09:32;3.42;;;1.67;;
14704;SDS011;7442;50.840;3.396;2024-02-23T13:12:02;2.30;;;1.42;;
14704;SDS011;7442;50.840;3.396;2024-02-23T13:14:33;5.12;;;1.57;;
14704;SDS011;7442;50.840;3.396;2024-02-23T13:17:03;4.78;;;1.37;;
14704;SDS011;7442;50.840;3.396;2024-02-23T13:19:33;4.78;;;1.50;;
14704;SDS011;7442;50.840;3.396;2024-02-23T13:22:03;5.17;;;1.40;;
14704;SDS011;7442;50.840;3.396;2024-02-23T13:24:33;5.53;;;1.75;;
14704;SDS011;7442;50.840;3.396;2024-02-23T13:27:03;6.10;;;1.72;;
14704;SDS011;7442;50.840;3.396;2024-02-23T13:29:33;4.20;;;1.52;;
14704;SDS011;7442;50.840;3.396;2024-02-23T13:32:03;2.98;;;1.30;;
14704;SDS011;7442;50.840;3.396;2024-02-23T13:34:35;4.20;;;1.40;;
14704;SDS011;7442;50.840;3.396;2024-02-23T13:37:05;3.52;;;1.60;;
14704;SDS011;7442;50.840;3.396;2024-02-23T13:39:35;3.45;;;1.32;;
14704;SDS011;7442;50.840;3.396;2024-02-23T13:42:05;6.55;;;1.50;;
14704;SDS011;7442;50.840;3.396;2024-02-23T13:44:37;2.45;;;1.32;;
14704;SDS011;7442;50.840;3.396;2024-02-23T13:47:07;5.80;;;1.35;;
14704;SDS011;7442;50.840;3.396;2024-02-23T13:49:37;6.37;;;1.42;;
14704;SDS011;7442;50.840;3.396;2024-02-23T13:52:07;7.28;;;1.50;;
14704;SDS011;7442;50.840;3.396;2024-02-23T13:54:37;4.15;;;1.47;;
14704;SDS011;7442;50.840;3.396;2024-02-23T13:57:07;7.08;;;1.50;;
14704;SDS011;7442;50.840;3.396;2024-02-23T13:59:37;4.90;;;1.42;;
14704;SDS011;7442;50.840;3.396;2024-02-23T14:02:07;2.20;;;1.22;;
14704;SDS011;7442;50.840;3.396;2024-02-23T14:04:38;3.67;;;1.40;;
14704;SDS011;7442;50.840;3.396;2024-02-23T14:07:08;4.28;;;1.52;;
14704;SDS011;7442;50.840;3.396;2024-02-23T14:09:38;3.08;;;1.10;;
14704;SDS011;7442;50.840;3.396;2024-02-23T14:12:08;3.83;;;1.37;;
14704;SDS011;7442;50.840;3.396;2024-02-23T14:14:38;1.65;;;0.95;;
14704;SDS011;7442;50.840;3.396;2024-02-23T14:17:08;3.58;;;1.45;;
14704;SDS011;7442;50.840;3.396;2024-02-23T14:19:38;3.15;;;1.27;;
14704;SDS011;7442;50.840;3.396;2024-02-23T14:22:08;2.50;;;1.30;;
14704;SDS011;7442;50.840;3.396;2024-02-23T14:24:38;3.62;;;1.10;;
14704;SDS011;7442;50.840;3.396;2024-02-23T14:27:09;3.72;;;1.30;;
14704;SDS011;7442;50.840;3.396;2024-02-23T14:29:39;3.40;;;1.15;;
14704;SDS011;7442;50.840;3.396;2024-02-23T14:32:09;3.35;;;1.15;;
14704;SDS011;7442;50.840;3.396;2024-02-23T14:34:41;3.02;;;1.37;;
14704;SDS011;7442;50.840;3.396;2024-02-23T14:37:11;6.62;;;1.35;;
14704;SDS011;7442;50.840;3.396;2024-02-23T14:39:41;2.45;;;1.05;;
14704;SDS011;7442;50.840;3.396;2024-02-23T14:42:11;2.58;;;1.25;;
14704;SDS011;7442;50.840;3.396;2024-02-23T14:44:41;3.00;;;1.35;;
14704;SDS011;7442;50.840;3.396;2024-02-23T14:47:11;3.60;;;0.90;;
14704;SDS011;7442;50.840;3.396;2024-02-23T14:49:41;2.77;;;1.40;;
14704;SDS011;7442;50.840;3.396;2024-02-23T14:52:11;2.12;;;0.80;;
14704;SDS011;7442;50.840;3.396;2024-02-23T14:54:43;2.92;;;1.20;;
14704;SDS011;7442;50.840;3.396;2024-02-23T14:57:13;2.30;;;1.10;;
14704;SDS011;7442;50.840;3.396;2024-02-23T14:59:43;2.12;;;1.22;;
14704;SDS011;7442;50.840;3.396;2024-02-23T15:02:18;2.30;;;1.22;;
14704;SDS011;7442;50.840;3.396;2024-02-23T15:04:51;1.82;;;1.00;;
14704;SDS011;7442;50.840;3.396;2024-02-23T15:07:21;2.52;;;1.05;;
14704;SDS011;7442;50.840;3.396;2024-02-23T15:09:51;3.12;;;1.20;;
14704;SDS011;7442;50.840;3.396;2024-02-23T15:12:21;3.58;;;1.10;;
14704;SDS011;7442;50.840;3.396;2024-02-23T15:14:52;1.75;;;0.78;;
14704;SDS011;7442;50.840;3.396;2024-02-23T15:17:23;1.77;;;0.90;;
14704;SDS011;7442;50.840;3.396;2024-02-23T15:19:53;1.30;;;0.88;;
14704;SDS011;7442;50.840;3.396;2024-02-23T15:22:23;4.42;;;1.00;;
14704;SDS011;7442;50.840;3.396;2024-02-23T15:24:54;3.20;;;1.22;;